Terminal Aerodrome Forecast
Issued by NWS

Home | Current Version | Previous Version | Text Only | Print | Product List | Glossary On
Versions: 1 2 3 4 5 6 7 8 9 10 11 12 13 14 15 16 17 18 19 20 21
000
FTAK31 PANC 171740
TAFAIL
TAF
PAIL 171740Z 1718/1818 VRB06KT P6SM BKN180
     FM180700 08012KT P6SM BKN080 WS020/12040KT
     FM181400 10016G24KT P6SM VCSH SCT015 BKN035 OVC050
      WS020/14045KT=

USA.gov is the U.S. government's official web portal to all federal, state and local government web resources and services.